sensor_id;sensor_type;location;lat;lon;timestamp;P1;durP1;ratioP1;P2;durP2;ratioP2
17235;SDS011;8734;59.272;17.780;2023-08-07T00:00:30;38.77;;;22.43;;
17235;SDS011;8734;59.272;17.780;2023-08-07T00:02:59;35.23;;;22.63;;
17235;SDS011;8734;59.272;17.780;2023-08-07T00:05:27;40.53;;;23.37;;
17235;SDS011;8734;59.272;17.780;2023-08-07T00:07:56;37.50;;;21.40;;
17235;SDS011;8734;59.272;17.780;2023-08-07T00:10:26;37.40;;;21.60;;
17235;SDS011;8734;59.272;17.780;2023-08-07T00:12:54;38.40;;;21.27;;
17235;SDS011;8734;59.272;17.780;2023-08-07T00:15:22;40.10;;;21.27;;
17235;SDS011;8734;59.272;17.780;2023-08-07T00:17:51;34.53;;;21.90;;
17235;SDS011;8734;59.272;17.780;2023-08-07T00:20:19;54.40;;;21.03;;
17235;SDS011;8734;59.272;17.780;2023-08-07T00:22:48;34.07;;;20.63;;
17235;SDS011;8734;59.272;17.780;2023-08-07T00:25:16;38.17;;;23.53;;
17235;SDS011;8734;59.272;17.780;2023-08-07T00:27:46;39.63;;;21.93;;
17235;SDS011;8734;59.272;17.780;2023-08-07T00:30:14;46.13;;;22.43;;
17235;SDS011;8734;59.272;17.780;2023-08-07T00:32:42;38.47;;;21.40;;
17235;SDS011;8734;59.272;17.780;2023-08-07T00:35:11;49.03;;;26.50;;
17235;SDS011;8734;59.272;17.780;2023-08-07T00:37:39;46.93;;;27.10;;
17235;SDS011;8734;59.272;17.780;2023-08-07T00:40:07;55.40;;;30.20;;
17235;SDS011;8734;59.272;17.780;2023-08-07T00:42:36;54.73;;;30.90;;
17235;SDS011;8734;59.272;17.780;2023-08-07T00:45:07;63.00;;;33.17;;
17235;SDS011;8734;59.272;17.780;2023-08-07T00:47:35;59.40;;;32.83;;
17235;SDS011;8734;59.272;17.780;2023-08-07T00:50:05;52.70;;;31.83;;
17235;SDS011;8734;59.272;17.780;2023-08-07T00:52:34;61.37;;;32.07;;
17235;SDS011;8734;59.272;17.780;2023-08-07T00:55:03;58.20;;;32.63;;
17235;SDS011;8734;59.272;17.780;2023-08-07T00:57:32;54.30;;;30.20;;
17235;SDS011;8734;59.272;17.780;2023-08-07T01:00:00;53.80;;;28.63;;
17235;SDS011;8734;59.272;17.780;2023-08-07T01:02:31;57.77;;;32.10;;
17235;SDS011;8734;59.272;17.780;2023-08-07T01:04:59;60.67;;;32.37;;
17235;SDS011;8734;59.272;17.780;2023-08-07T01:07:28;53.80;;;32.20;;
17235;SDS011;8734;59.272;17.780;2023-08-07T01:09:57;53.07;;;31.33;;
17235;SDS011;8734;59.272;17.780;2023-08-07T01:12:29;56.83;;;31.67;;
17235;SDS011;8734;59.272;17.780;2023-08-07T01:15:02;55.23;;;30.97;;
17235;SDS011;8734;59.272;17.780;2023-08-07T01:17:38;54.80;;;31.67;;
17235;SDS011;8734;59.272;17.780;2023-08-07T01:20:09;50.73;;;30.20;;
17235;SDS011;8734;59.272;17.780;2023-08-07T01:22:40;51.23;;;30.90;;
17235;SDS011;8734;59.272;17.780;2023-08-07T01:25:08;52.87;;;29.70;;
17235;SDS011;8734;59.272;17.780;2023-08-07T01:27:37;50.60;;;28.83;;
17235;SDS011;8734;59.272;17.780;2023-08-07T01:30:11;44.30;;;27.90;;
17235;SDS011;8734;59.272;17.780;2023-08-07T01:32:47;41.20;;;26.37;;
17235;SDS011;8734;59.272;17.780;2023-08-07T01:35:23;59.57;;;28.37;;
17235;SDS011;8734;59.272;17.780;2023-08-07T01:37:57;51.57;;;27.40;;
17235;SDS011;8734;59.272;17.780;2023-08-07T01:40:28;39.20;;;26.70;;
17235;SDS011;8734;59.272;17.780;2023-08-07T01:42:57;45.17;;;25.07;;
17235;SDS011;8734;59.272;17.780;2023-08-07T01:45:26;43.43;;;25.90;;
17235;SDS011;8734;59.272;17.780;2023-08-07T01:47:55;44.03;;;23.97;;
17235;SDS011;8734;59.272;17.780;2023-08-07T01:50:24;41.40;;;25.27;;
17235;SDS011;8734;59.272;17.780;2023-08-07T01:52:53;40.53;;;26.03;;
17235;SDS011;8734;59.272;17.780;2023-08-07T01:55:22;39.47;;;25.90;;
17235;SDS011;8734;59.272;17.780;2023-08-07T01:57:51;41.47;;;24.83;;
17235;SDS011;8734;59.272;17.780;2023-08-07T02:00:19;42.07;;;24.27;;
17235;SDS011;8734;59.272;17.780;2023-08-07T02:02:48;39.80;;;23.37;;
17235;SDS011;8734;59.272;17.780;2023-08-07T02:05:16;35.17;;;23.17;;
17235;SDS011;8734;59.272;17.780;2023-08-07T02:07:45;38.67;;;21.87;;
17235;SDS011;8734;59.272;17.780;2023-08-07T02:10:13;36.73;;;22.30;;
17235;SDS011;8734;59.272;17.780;2023-08-07T02:12:43;40.67;;;23.33;;
17235;SDS011;8734;59.272;17.780;2023-08-07T02:15:11;36.57;;;21.97;;
17235;SDS011;8734;59.272;17.780;2023-08-07T02:17:39;37.93;;;23.60;;
17235;SDS011;8734;59.272;17.780;2023-08-07T02:20:09;43.97;;;24.30;;
17235;SDS011;8734;59.272;17.780;2023-08-07T02:22:38;39.77;;;23.80;;
17235;SDS011;8734;59.272;17.780;2023-08-07T02:25:06;41.43;;;24.00;;
17235;SDS011;8734;59.272;17.780;2023-08-07T02:27:35;39.80;;;23.87;;
17235;SDS011;8734;59.272;17.780;2023-08-07T02:30:06;42.93;;;24.20;;
17235;SDS011;8734;59.272;17.780;2023-08-07T02:32:34;42.73;;;24.07;;
17235;SDS011;8734;59.272;17.780;2023-08-07T02:35:03;49.37;;;24.07;;
17235;SDS011;8734;59.272;17.780;2023-08-07T02:37:31;49.50;;;24.53;;
17235;SDS011;8734;59.272;17.780;2023-08-07T02:40:00;44.77;;;22.43;;
17235;SDS011;8734;59.272;17.780;2023-08-07T02:42:28;37.77;;;21.97;;
17235;SDS011;8734;59.272;17.780;2023-08-07T02:44:56;47.07;;;22.90;;
17235;SDS011;8734;59.272;17.780;2023-08-07T02:47:26;43.10;;;21.17;;
17235;SDS011;8734;59.272;17.780;2023-08-07T02:49:54;34.87;;;21.53;;
17235;SDS011;8734;59.272;17.780;2023-08-07T02:52:23;36.13;;;21.83;;
17235;SDS011;8734;59.272;17.780;2023-08-07T02:54:51;35.40;;;20.97;;
17235;SDS011;8734;59.272;17.780;2023-08-07T02:57:19;43.33;;;22.60;;
17235;SDS011;8734;59.272;17.780;2023-08-07T02:59:48;33.37;;;21.23;;
17235;SDS011;8734;59.272;17.780;2023-08-07T03:02:16;32.87;;;20.83;;
17235;SDS011;8734;59.272;17.780;2023-08-07T03:04:46;34.40;;;21.30;;
17235;SDS011;8734;59.272;17.780;2023-08-07T03:07:14;32.33;;;21.50;;
17235;SDS011;8734;59.272;17.780;2023-08-07T03:09:44;32.77;;;20.17;;
17235;SDS011;8734;59.272;17.780;2023-08-07T03:12:13;29.83;;;20.00;;
17235;SDS011;8734;59.272;17.780;2023-08-07T03:14:42;32.43;;;19.83;;
17235;SDS011;8734;59.272;17.780;2023-08-07T03:17:10;31.60;;;20.60;;
17235;SDS011;8734;59.272;17.780;2023-08-07T03:19:39;32.73;;;20.90;;
17235;SDS011;8734;59.272;17.780;2023-08-07T03:22:10;32.13;;;20.50;;
17235;SDS011;8734;59.272;17.780;2023-08-07T03:24:38;30.73;;;19.83;;
17235;SDS011;8734;59.272;17.780;2023-08-07T03:27:06;32.43;;;19.40;;
17235;SDS011;8734;59.272;17.780;2023-08-07T03:29:35;31.30;;;20.33;;
17235;SDS011;8734;59.272;17.780;2023-08-07T03:32:05;34.37;;;20.07;;
17235;SDS011;8734;59.272;17.780;2023-08-07T03:34:34;24.50;;;17.40;;
17235;SDS011;8734;59.272;17.780;2023-08-07T03:37:02;24.80;;;17.77;;
17235;SDS011;8734;59.272;17.780;2023-08-07T03:39:32;25.67;;;17.40;;
17235;SDS011;8734;59.272;17.780;2023-08-07T03:42:00;24.77;;;15.93;;
17235;SDS011;8734;59.272;17.780;2023-08-07T03:44:29;23.97;;;16.97;;
17235;SDS011;8734;59.272;17.780;2023-08-07T03:46:57;27.13;;;15.40;;
17235;SDS011;8734;59.272;17.780;2023-08-07T03:49:25;21.20;;;14.37;;
17235;SDS011;8734;59.272;17.780;2023-08-07T03:51:53;21.80;;;14.20;;
17235;SDS011;8734;59.272;17.780;2023-08-07T03:54:22;22.50;;;13.20;;
17235;SDS011;8734;59.272;17.780;2023-08-07T03:56:52;18.37;;;12.03;;
17235;SDS011;8734;59.272;17.780;2023-08-07T03:59:21;18.80;;;13.67;;
17235;SDS011;8734;59.272;17.780;2023-08-07T04:01:49;19.77;;;12.20;;
17235;SDS011;8734;59.272;17.780;2023-08-07T04:04:17;22.70;;;11.77;;
17235;SDS011;8734;59.272;17.780;2023-08-07T04:06:46;17.93;;;11.20;;
17235;SDS011;8734;59.272;17.780;2023-08-07T04:09:14;15.03;;;11.70;;
17235;SDS011;8734;59.272;17.780;2023-08-07T04:11:43;18.00;;;12.60;;
17235;SDS011;8734;59.272;17.780;2023-08-07T04:14:12;19.23;;;12.20;;
17235;SDS011;8734;59.272;17.780;2023-08-07T04:16:41;17.93;;;12.70;;
17235;SDS011;8734;59.272;17.780;2023-08-07T04:19:09;24.27;;;14.10;;
17235;SDS011;8734;59.272;17.780;2023-08-07T04:21:37;21.17;;;14.13;;
17235;SDS011;8734;59.272;17.780;2023-08-07T04:24:06;20.77;;;14.40;;
17235;SDS011;8734;59.272;17.780;2023-08-07T04:26:37;22.27;;;14.83;;
17235;SDS011;8734;59.272;17.780;2023-08-07T04:29:05;27.40;;;15.13;;
17235;SDS011;8734;59.272;17.780;2023-08-07T04:31:35;24.20;;;15.63;;
17235;SDS011;8734;59.272;17.780;2023-08-07T04:34:03;26.27;;;16.67;;
17235;SDS011;8734;59.272;17.780;2023-08-07T04:36:32;22.60;;;16.03;;
17235;SDS011;8734;59.272;17.780;2023-08-07T04:39:00;23.83;;;16.67;;
17235;SDS011;8734;59.272;17.780;2023-08-07T04:41:29;26.27;;;17.97;;
17235;SDS011;8734;59.272;17.780;2023-08-07T04:43:57;23.17;;;16.67;;
17235;SDS011;8734;59.272;17.780;2023-08-07T04:46:26;23.43;;;16.80;;
17235;SDS011;8734;59.272;17.780;2023-08-07T04:48:55;33.50;;;17.47;;
17235;SDS011;8734;59.272;17.780;2023-08-07T04:51:25;28.80;;;18.20;;
17235;SDS011;8734;59.272;17.780;2023-08-07T04:53:57;28.40;;;18.80;;
17235;SDS011;8734;59.272;17.780;2023-08-07T04:56:25;37.37;;;19.53;;
17235;SDS011;8734;59.272;17.780;2023-08-07T04:58:53;32.27;;;18.97;;
17235;SDS011;8734;59.272;17.780;2023-08-07T05:01:21;31.83;;;20.00;;
17235;SDS011;8734;59.272;17.780;2023-08-07T05:03:50;33.97;;;20.57;;
17235;SDS011;8734;59.272;17.780;2023-08-07T05:06:20;30.93;;;21.53;;
17235;SDS011;8734;59.272;17.780;2023-08-07T05:08:48;33.20;;;21.60;;
17235;SDS011;8734;59.272;17.780;2023-08-07T05:11:16;36.57;;;21.30;;
17235;SDS011;8734;59.272;17.780;2023-08-07T05:13:46;34.43;;;21.93;;
17235;SDS011;8734;59.272;17.780;2023-08-07T05:16:15;41.67;;;22.97;;
17235;SDS011;8734;59.272;17.780;2023-08-07T05:18:45;35.50;;;25.03;;
17235;SDS011;8734;59.272;17.780;2023-08-07T05:21:16;37.93;;;25.50;;
17235;SDS011;8734;59.272;17.780;2023-08-07T05:23:46;50.13;;;27.00;;
17235;SDS011;8734;59.272;17.780;2023-08-07T05:26:14;49.50;;;27.03;;
17235;SDS011;8734;59.272;17.780;2023-08-07T05:28:46;46.03;;;28.33;;
17235;SDS011;8734;59.272;17.780;2023-08-07T05:31:14;46.53;;;28.77;;
17235;SDS011;8734;59.272;17.780;2023-08-07T05:33:42;51.60;;;28.13;;
17235;SDS011;8734;59.272;17.780;2023-08-07T05:36:11;47.97;;;28.57;;
17235;SDS011;8734;59.272;17.780;2023-08-07T05:38:39;44.13;;;27.93;;
17235;SDS011;8734;59.272;17.780;2023-08-07T05:41:09;48.13;;;29.47;;
17235;SDS011;8734;59.272;17.780;2023-08-07T05:43:37;47.43;;;27.17;;
17235;SDS011;8734;59.272;17.780;2023-08-07T05:46:06;44.50;;;27.83;;
17235;SDS011;8734;59.272;17.780;2023-08-07T05:48:34;38.97;;;26.63;;
17235;SDS011;8734;59.272;17.780;2023-08-07T05:51:03;40.60;;;27.17;;
17235;SDS011;8734;59.272;17.780;2023-08-07T05:53:32;46.37;;;27.90;;
17235;SDS011;8734;59.272;17.780;2023-08-07T05:56:01;45.67;;;28.07;;
17235;SDS011;8734;59.272;17.780;2023-08-07T05:58:31;55.43;;;28.27;;
17235;SDS011;8734;59.272;17.780;2023-08-07T06:00:59;52.13;;;31.57;;
17235;SDS011;8734;59.272;17.780;2023-08-07T06:03:27;50.47;;;31.07;;
17235;SDS011;8734;59.272;17.780;2023-08-07T06:05:56;57.90;;;33.13;;
17235;SDS011;8734;59.272;17.780;2023-08-07T06:08:24;56.07;;;34.13;;
17235;SDS011;8734;59.272;17.780;2023-08-07T06:10:52;63.50;;;35.37;;
17235;SDS011;8734;59.272;17.780;2023-08-07T06:13:21;59.40;;;34.07;;
17235;SDS011;8734;59.272;17.780;2023-08-07T06:16:03;60.67;;;32.43;;
17235;SDS011;8734;59.272;17.780;2023-08-07T06:18:32;53.73;;;31.47;;
17235;SDS011;8734;59.272;17.780;2023-08-07T06:21:01;46.57;;;26.63;;
17235;SDS011;8734;59.272;17.780;2023-08-07T06:23:33;44.00;;;28.10;;
17235;SDS011;8734;59.272;17.780;2023-08-07T06:26:01;44.67;;;26.97;;
17235;SDS011;8734;59.272;17.780;2023-08-07T06:28:31;40.20;;;27.30;;
17235;SDS011;8734;59.272;17.780;2023-08-07T06:31:02;40.80;;;25.53;;
17235;SDS011;8734;59.272;17.780;2023-08-07T06:33:31;39.70;;;24.83;;
17235;SDS011;8734;59.272;17.780;2023-08-07T06:36:00;40.27;;;25.43;;
17235;SDS011;8734;59.272;17.780;2023-08-07T06:38:29;38.93;;;24.10;;
17235;SDS011;8734;59.272;17.780;2023-08-07T06:40:57;39.85;;;22.63;;
17235;SDS011;8734;59.272;17.780;2023-08-07T06:43:25;44.87;;;22.93;;
17235;SDS011;8734;59.272;17.780;2023-08-07T06:45:55;40.28;;;23.67;;
17235;SDS011;8734;59.272;17.780;2023-08-07T06:48:25;41.15;;;23.27;;
17235;SDS011;8734;59.272;17.780;2023-08-07T06:50:53;39.70;;;22.48;;
17235;SDS011;8734;59.272;17.780;2023-08-07T06:53:22;32.85;;;21.40;;
17235;SDS011;8734;59.272;17.780;2023-08-07T06:55:50;31.20;;;19.80;;
17235;SDS011;8734;59.272;17.780;2023-08-07T06:58:21;33.70;;;20.70;;
17235;SDS011;8734;59.272;17.780;2023-08-07T07:00:50;36.05;;;21.30;;
17235;SDS011;8734;59.272;17.780;2023-08-07T07:03:18;34.38;;;20.50;;
17235;SDS011;8734;59.272;17.780;2023-08-07T07:05:48;31.70;;;20.10;;
17235;SDS011;8734;59.272;17.780;2023-08-07T07:08:16;35.20;;;19.35;;
17235;SDS011;8734;59.272;17.780;2023-08-07T07:10:45;31.73;;;20.25;;
17235;SDS011;8734;59.272;17.780;2023-08-07T07:13:13;35.75;;;20.58;;
17235;SDS011;8734;59.272;17.780;2023-08-07T07:15:41;34.40;;;19.33;;
17235;SDS011;8734;59.272;17.780;2023-08-07T07:18:10;30.80;;;20.45;;
17235;SDS011;8734;59.272;17.780;2023-08-07T07:20:38;31.15;;;20.48;;
17235;SDS011;8734;59.272;17.780;2023-08-07T07:23:07;31.45;;;20.13;;
17235;SDS011;8734;59.272;17.780;2023-08-07T07:25:36;23.60;;;16.45;;
17235;SDS011;8734;59.272;17.780;2023-08-07T07:28:04;28.58;;;15.77;;
17235;SDS011;8734;59.272;17.780;2023-08-07T07:30:32;34.42;;;18.50;;
17235;SDS011;8734;59.272;17.780;2023-08-07T07:33:00;27.08;;;17.38;;
17235;SDS011;8734;59.272;17.780;2023-08-07T07:35:29;27.75;;;19.48;;
17235;SDS011;8734;59.272;17.780;2023-08-07T07:37:57;37.70;;;19.33;;
17235;SDS011;8734;59.272;17.780;2023-08-07T07:40:27;30.73;;;18.88;;
17235;SDS011;8734;59.272;17.780;2023-08-07T07:42:55;27.90;;;19.55;;
17235;SDS011;8734;59.272;17.780;2023-08-07T07:45:23;30.10;;;19.85;;
17235;SDS011;8734;59.272;17.780;2023-08-07T07:47:51;31.48;;;19.00;;
17235;SDS011;8734;59.272;17.780;2023-08-07T07:50:20;28.48;;;18.38;;
17235;SDS011;8734;59.272;17.780;2023-08-07T07:52:48;30.52;;;18.35;;
17235;SDS011;8734;59.272;17.780;2023-08-07T07:55:17;29.40;;;17.83;;
17235;SDS011;8734;59.272;17.780;2023-08-07T07:57:46;31.52;;;17.60;;
17235;SDS011;8734;59.272;17.780;2023-08-07T08:00:15;21.40;;;15.20;;
17235;SDS011;8734;59.272;17.780;2023-08-07T08:02:45;32.25;;;16.25;;
17235;SDS011;8734;59.272;17.780;2023-08-07T08:05:13;22.10;;;15.13;;
17235;SDS011;8734;59.272;17.780;2023-08-07T08:07:42;21.73;;;14.07;;
17235;SDS011;8734;59.272;17.780;2023-08-07T08:10:10;21.17;;;13.13;;
17235;SDS011;8734;59.272;17.780;2023-08-07T08:12:39;22.40;;;13.30;;
17235;SDS011;8734;59.272;17.780;2023-08-07T08:15:09;21.70;;;13.07;;
17235;SDS011;8734;59.272;17.780;2023-08-07T08:17:38;28.30;;;13.55;;
17235;SDS011;8734;59.272;17.780;2023-08-07T08:20:06;25.95;;;14.15;;
17235;SDS011;8734;59.272;17.780;2023-08-07T08:22:35;21.42;;;14.02;;
17235;SDS011;8734;59.272;17.780;2023-08-07T08:25:04;21.15;;;13.55;;
17235;SDS011;8734;59.272;17.780;2023-08-07T08:27:33;27.65;;;13.93;;
17235;SDS011;8734;59.272;17.780;2023-08-07T08:30:02;19.88;;;14.60;;
17235;SDS011;8734;59.272;17.780;2023-08-07T08:32:32;23.35;;;13.73;;
17235;SDS011;8734;59.272;17.780;2023-08-07T08:35:00;24.50;;;12.07;;
17235;SDS011;8734;59.272;17.780;2023-08-07T08:37:29;25.38;;;13.77;;
17235;SDS011;8734;59.272;17.780;2023-08-07T08:39:57;22.77;;;12.45;;
17235;SDS011;8734;59.272;17.780;2023-08-07T08:42:25;24.90;;;12.68;;
17235;SDS011;8734;59.272;17.780;2023-08-07T08:44:55;17.13;;;11.82;;
17235;SDS011;8734;59.272;17.780;2023-08-07T08:47:25;21.33;;;12.30;;
17235;SDS011;8734;59.272;17.780;2023-08-07T08:49:57;23.45;;;12.55;;
17235;SDS011;8734;59.272;17.780;2023-08-07T08:52:29;22.98;;;12.23;;
17235;SDS011;8734;59.272;17.780;2023-08-07T08:54:59;22.15;;;11.93;;
17235;SDS011;8734;59.272;17.780;2023-08-07T08:57:28;19.17;;;11.90;;
17235;SDS011;8734;59.272;17.780;2023-08-07T08:59:58;23.83;;;12.18;;
17235;SDS011;8734;59.272;17.780;2023-08-07T09:02:27;21.00;;;11.82;;
17235;SDS011;8734;59.272;17.780;2023-08-07T09:04:57;23.35;;;12.85;;
17235;SDS011;8734;59.272;17.780;2023-08-07T09:07:25;22.20;;;12.13;;
17235;SDS011;8734;59.272;17.780;2023-08-07T09:09:55;22.45;;;11.88;;
17235;SDS011;8734;59.272;17.780;2023-08-07T09:12:25;22.67;;;11.65;;
17235;SDS011;8734;59.272;17.780;2023-08-07T09:14:57;23.63;;;11.65;;
17235;SDS011;8734;59.272;17.780;2023-08-07T09:17:28;17.35;;;11.93;;
17235;SDS011;8734;59.272;17.780;2023-08-07T09:20:00;18.85;;;12.70;;
17235;SDS011;8734;59.272;17.780;2023-08-07T09:22:31;17.52;;;12.90;;
17235;SDS011;8734;59.272;17.780;2023-08-07T09:24:59;24.17;;;13.68;;
17235;SDS011;8734;59.272;17.780;2023-08-07T09:27:27;18.65;;;12.95;;
17235;SDS011;8734;59.272;17.780;2023-08-07T09:29:56;19.75;;;13.40;;
17235;SDS011;8734;59.272;17.780;2023-08-07T09:32:25;24.75;;;13.48;;
17235;SDS011;8734;59.272;17.780;2023-08-07T09:34:54;22.13;;;14.65;;
17235;SDS011;8734;59.272;17.780;2023-08-07T09:37:24;22.83;;;13.82;;
17235;SDS011;8734;59.272;17.780;2023-08-07T09:39:52;23.02;;;14.00;;
17235;SDS011;8734;59.272;17.780;2023-08-07T09:42:20;32.05;;;14.45;;
17235;SDS011;8734;59.272;17.780;2023-08-07T09:44:49;21.13;;;12.65;;
17235;SDS011;8734;59.272;17.780;2023-08-07T09:47:17;23.63;;;14.55;;
17235;SDS011;8734;59.272;17.780;2023-08-07T09:49:47;27.10;;;14.20;;
17235;SDS011;8734;59.272;17.780;2023-08-07T09:52:21;17.52;;;13.65;;
17235;SDS011;8734;59.272;17.780;2023-08-07T09:54:56;20.10;;;13.80;;
17235;SDS011;8734;59.272;17.780;2023-08-07T09:57:24;18.42;;;13.38;;
17235;SDS011;8734;59.272;17.780;2023-08-07T09:59:53;37.28;;;13.27;;
17235;SDS011;8734;59.272;17.780;2023-08-07T10:02:22;22.42;;;13.40;;
17235;SDS011;8734;59.272;17.780;2023-08-07T10:04:51;22.92;;;13.98;;
17235;SDS011;8734;59.272;17.780;2023-08-07T10:07:21;27.25;;;13.70;;
17235;SDS011;8734;59.272;17.780;2023-08-07T10:09:49;30.00;;;14.55;;
17235;SDS011;8734;59.272;17.780;2023-08-07T10:12:20;37.40;;;14.57;;
17235;SDS011;8734;59.272;17.780;2023-08-07T10:14:48;19.23;;;12.65;;
17235;SDS011;8734;59.272;17.780;2023-08-07T10:17:18;19.70;;;12.63;;
17235;SDS011;8734;59.272;17.780;2023-08-07T10:19:48;18.05;;;12.38;;
17235;SDS011;8734;59.272;17.780;2023-08-07T10:22:16;19.98;;;12.85;;
17235;SDS011;8734;59.272;17.780;2023-08-07T10:24:46;21.50;;;13.45;;
17235;SDS011;8734;59.272;17.780;2023-08-07T10:27:16;21.17;;;13.05;;
17235;SDS011;8734;59.272;17.780;2023-08-07T10:29:48;16.98;;;12.68;;
17235;SDS011;8734;59.272;17.780;2023-08-07T10:32:19;17.60;;;12.40;;
17235;SDS011;8734;59.272;17.780;2023-08-07T10:34:49;25.00;;;12.65;;
17235;SDS011;8734;59.272;17.780;2023-08-07T10:37:31;17.80;;;11.48;;
17235;SDS011;8734;59.272;17.780;2023-08-07T10:40:01;19.50;;;11.10;;
17235;SDS011;8734;59.272;17.780;2023-08-07T10:42:33;19.90;;;11.13;;
17235;SDS011;8734;59.272;17.780;2023-08-07T10:45:25;19.92;;;11.73;;
17235;SDS011;8734;59.272;17.780;2023-08-07T10:47:58;22.20;;;11.80;;
17235;SDS011;8734;59.272;17.780;2023-08-07T10:50:31;25.65;;;12.60;;
17235;SDS011;8734;59.272;17.780;2023-08-07T10:53:00;16.95;;;11.23;;
17235;SDS011;8734;59.272;17.780;2023-08-07T10:55:42;20.95;;;10.73;;
17235;SDS011;8734;59.272;17.780;2023-08-07T10:58:21;19.40;;;11.52;;
17235;SDS011;8734;59.272;17.780;2023-08-07T11:00:52;17.38;;;11.05;;
17235;SDS011;8734;59.272;17.780;2023-08-07T11:03:59;17.58;;;12.38;;
17235;SDS011;8734;59.272;17.780;2023-08-07T11:06:33;21.35;;;12.00;;
17235;SDS011;8734;59.272;17.780;2023-08-07T11:09:04;14.38;;;10.77;;
17235;SDS011;8734;59.272;17.780;2023-08-07T11:11:34;16.40;;;11.20;;
17235;SDS011;8734;59.272;17.780;2023-08-07T11:14:06;22.40;;;11.98;;
17235;SDS011;8734;59.272;17.780;2023-08-07T11:16:36;22.08;;;11.07;;
17235;SDS011;8734;59.272;17.780;2023-08-07T11:19:05;15.98;;;10.57;;
17235;SDS011;8734;59.272;17.780;2023-08-07T11:21:34;23.73;;;11.32;;
17235;SDS011;8734;59.272;17.780;2023-08-07T11:24:02;16.50;;;10.50;;
17235;SDS011;8734;59.272;17.780;2023-08-07T11:26:31;18.65;;;10.25;;
17235;SDS011;8734;59.272;17.780;2023-08-07T11:29:00;17.17;;;9.70;;
17235;SDS011;8734;59.272;17.780;2023-08-07T11:31:28;14.52;;;9.88;;
17235;SDS011;8734;59.272;17.780;2023-08-07T11:33:58;11.50;;;9.55;;
17235;SDS011;8734;59.272;17.780;2023-08-07T11:36:29;18.63;;;9.35;;
17235;SDS011;8734;59.272;17.780;2023-08-07T11:38:58;13.65;;;9.45;;
17235;SDS011;8734;59.272;17.780;2023-08-07T11:41:26;13.77;;;8.88;;
17235;SDS011;8734;59.272;17.780;2023-08-07T11:43:59;16.33;;;9.18;;
17235;SDS011;8734;59.272;17.780;2023-08-07T11:46:28;17.38;;;9.80;;
17235;SDS011;8734;59.272;17.780;2023-08-07T11:48:58;12.95;;;9.52;;
17235;SDS011;8734;59.272;17.780;2023-08-07T11:51:27;17.23;;;10.48;;
17235;SDS011;8734;59.272;17.780;2023-08-07T11:53:56;17.27;;;10.38;;
17235;SDS011;8734;59.272;17.780;2023-08-07T11:56:25;15.13;;;9.57;;
17235;SDS011;8734;59.272;17.780;2023-08-07T11:58:53;11.98;;;9.90;;
17235;SDS011;8734;59.272;17.780;2023-08-07T12:01:22;13.52;;;9.48;;
17235;SDS011;8734;59.272;17.780;2023-08-07T12:03:52;17.00;;;10.00;;
17235;SDS011;8734;59.272;17.780;2023-08-07T12:06:24;19.90;;;9.85;;
17235;SDS011;8734;59.272;17.780;2023-08-07T12:08:53;18.40;;;10.40;;
17235;SDS011;8734;59.272;17.780;2023-08-07T12:11:23;15.13;;;10.07;;
17235;SDS011;8734;59.272;17.780;2023-08-07T12:13:52;16.63;;;9.85;;
17235;SDS011;8734;59.272;17.780;2023-08-07T12:16:21;13.10;;;10.50;;
17235;SDS011;8734;59.272;17.780;2023-08-07T12:18:49;15.80;;;10.30;;
17235;SDS011;8734;59.272;17.780;2023-08-07T12:21:20;14.48;;;10.13;;
17235;SDS011;8734;59.272;17.780;2023-08-07T12:23:54;17.33;;;9.98;;
17235;SDS011;8734;59.272;17.780;2023-08-07T12:26:23;16.17;;;9.55;;
17235;SDS011;8734;59.272;17.780;2023-08-07T12:28:52;11.57;;;9.18;;
17235;SDS011;8734;59.272;17.780;2023-08-07T12:31:20;13.45;;;8.98;;
17235;SDS011;8734;59.272;17.780;2023-08-07T12:33:49;18.30;;;9.88;;
17235;SDS011;8734;59.272;17.780;2023-08-07T12:36:18;17.02;;;9.65;;
17235;SDS011;8734;59.272;17.780;2023-08-07T12:38:47;13.02;;;9.27;;
17235;SDS011;8734;59.272;17.780;2023-08-07T12:41:16;15.77;;;9.93;;
17235;SDS011;8734;59.272;17.780;2023-08-07T12:43:48;13.52;;;9.43;;
17235;SDS011;8734;59.272;17.780;2023-08-07T12:46:16;16.52;;;8.23;;
17235;SDS011;8734;59.272;17.780;2023-08-07T12:48:47;20.65;;;9.25;;
17235;SDS011;8734;59.272;17.780;2023-08-07T12:51:15;13.45;;;8.27;;
17235;SDS011;8734;59.272;17.780;2023-08-07T12:53:44;17.88;;;8.95;;
17235;SDS011;8734;59.272;17.780;2023-08-07T12:56:14;14.88;;;8.13;;
17235;SDS011;8734;59.272;17.780;2023-08-07T12:58:43;13.65;;;7.32;;
17235;SDS011;8734;59.272;17.780;2023-08-07T13:01:13;12.20;;;8.43;;
17235;SDS011;8734;59.272;17.780;2023-08-07T13:03:41;9.57;;;7.88;;
17235;SDS011;8734;59.272;17.780;2023-08-07T13:06:10;12.77;;;8.48;;
17235;SDS011;8734;59.272;17.780;2023-08-07T13:08:38;12.57;;;8.48;;
17235;SDS011;8734;59.272;17.780;2023-08-07T13:11:07;12.32;;;8.07;;
17235;SDS011;8734;59.272;17.780;2023-08-07T13:13:36;13.05;;;8.68;;
17235;SDS011;8734;59.272;17.780;2023-08-07T13:16:06;15.55;;;8.63;;
17235;SDS011;8734;59.272;17.780;2023-08-07T13:18:34;11.52;;;7.82;;
17235;SDS011;8734;59.272;17.780;2023-08-07T13:21:03;11.40;;;8.48;;
17235;SDS011;8734;59.272;17.780;2023-08-07T13:23:31;12.13;;;8.00;;
17235;SDS011;8734;59.272;17.780;2023-08-07T13:25:59;12.07;;;8.77;;
17235;SDS011;8734;59.272;17.780;2023-08-07T13:28:28;18.42;;;8.23;;
17235;SDS011;8734;59.272;17.780;2023-08-07T13:30:56;12.73;;;9.23;;
17235;SDS011;8734;59.272;17.780;2023-08-07T13:33:26;11.20;;;8.52;;
17235;SDS011;8734;59.272;17.780;2023-08-07T13:35:54;13.60;;;7.90;;
17235;SDS011;8734;59.272;17.780;2023-08-07T13:38:22;11.55;;;7.38;;
17235;SDS011;8734;59.272;17.780;2023-08-07T13:40:51;9.02;;;7.18;;
17235;SDS011;8734;59.272;17.780;2023-08-07T13:43:19;10.25;;;7.63;;
17235;SDS011;8734;59.272;17.780;2023-08-07T13:45:48;9.95;;;7.25;;
17235;SDS011;8734;59.272;17.780;2023-08-07T13:48:17;13.60;;;7.15;;
17235;SDS011;8734;59.272;17.780;2023-08-07T13:50:47;8.98;;;6.28;;
17235;SDS011;8734;59.272;17.780;2023-08-07T13:53:15;9.07;;;7.18;;
17235;SDS011;8734;59.272;17.780;2023-08-07T13:55:43;11.90;;;6.57;;
17235;SDS011;8734;59.272;17.780;2023-08-07T13:58:12;10.38;;;6.80;;
17235;SDS011;8734;59.272;17.780;2023-08-07T14:00:42;8.15;;;6.72;;
17235;SDS011;8734;59.272;17.780;2023-08-07T14:03:10;11.27;;;6.50;;
17235;SDS011;8734;59.272;17.780;2023-08-07T14:05:40;11.90;;;6.93;;
17235;SDS011;8734;59.272;17.780;2023-08-07T14:08:10;7.28;;;6.47;;
17235;SDS011;8734;59.272;17.780;2023-08-07T14:10:38;11.45;;;7.10;;
17235;SDS011;8734;59.272;17.780;2023-08-07T14:13:08;8.43;;;6.57;;
17235;SDS011;8734;59.272;17.780;2023-08-07T14:15:57;9.27;;;6.40;;
17235;SDS011;8734;59.272;17.780;2023-08-07T14:18:26;11.25;;;6.82;;
17235;SDS011;8734;59.272;17.780;2023-08-07T14:20:54;9.10;;;6.32;;
17235;SDS011;8734;59.272;17.780;2023-08-07T14:23:30;11.38;;;6.57;;
17235;SDS011;8734;59.272;17.780;2023-08-07T14:25:59;14.05;;;6.72;;
17235;SDS011;8734;59.272;17.780;2023-08-07T14:28:28;10.75;;;5.78;;
17235;SDS011;8734;59.272;17.780;2023-08-07T14:30:57;7.55;;;6.20;;
17235;SDS011;8734;59.272;17.780;2023-08-07T14:33:27;9.02;;;6.63;;
17235;SDS011;8734;59.272;17.780;2023-08-07T14:35:56;8.65;;;6.55;;